DMCML EDAC-EDVK
Flight info
| Callsign | DMCML |
|---|---|
| Flight time | 1h 10m |
| Altitude | 4500 |
| Route | EDDE ODIPI |
| Aircraft | TL30/L-SDGRY/S |
Departure
| Time | 2026-04-23 16:52 |
|---|---|
| Airport | Leipzig–Altenburg Airport (EDAC) |
Arrival
| Time | 2026-04-23 18:03 |
|---|---|
| Airport | Kassel Airport (EDVK) |
| Time | Latitude | Longitude | Altitude | Speed | Heading |
|---|---|---|---|---|---|
| 2026-04-23 16:36 | 50.97889 | 12.50904 | 628 ft | 0 kts | 139° |
| 2026-04-23 16:48 | 50.97852 | 12.50900 | 629 ft | 9 kts | 195° |
| 2026-04-23 16:48 | 50.97785 | 12.50810 | 631 ft | 15 kts | 225° |
| 2026-04-23 16:48 | 50.97746 | 12.50655 | 633 ft | 16 kts | 227° |
| 2026-04-23 16:48 | 50.97660 | 12.50520 | 635 ft | 18 kts | 225° |
| 2026-04-23 16:49 | 50.97598 | 12.50424 | 637 ft | 19 kts | 224° |
| 2026-04-23 16:49 | 50.97566 | 12.50215 | 640 ft | 15 kts | 307° |
| 2026-04-23 16:49 | 50.97631 | 12.50089 | 640 ft | 15 kts | 312° |
| 2026-04-23 16:49 | 50.97641 | 12.50073 | 640 ft | 0 kts | 311° |
| 2026-04-23 16:51 | 50.97643 | 12.50068 | 640 ft | 4 kts | 310° |
| 2026-04-23 16:51 | 50.97698 | 12.50017 | 639 ft | 13 kts | 15° |
| 2026-04-23 16:51 | 50.97726 | 12.50041 | 638 ft | 0 kts | 38° |
| 2026-04-23 16:51 | 50.97748 | 12.50069 | 638 ft | 27 kts | 36° |
| 2026-04-23 16:52 | 50.98068 | 12.50483 | 706 ft | 77 kts | 38° |
| 2026-04-23 16:52 | 50.98426 | 12.51060 | 1078 ft | 75 kts | 44° |
| 2026-04-23 16:52 | 50.98754 | 12.51667 | 1393 ft | 70 kts | 38° |
| 2026-04-23 16:52 | 50.99096 | 12.52248 | 1718 ft | 70 kts | 33° |
| 2026-04-23 16:53 | 50.99454 | 12.52124 | 2057 ft | 66 kts | 288° |
| 2026-04-23 16:53 | 50.99171 | 12.51525 | 2402 ft | 72 kts | 233° |
| 2026-04-23 16:53 | 50.98915 | 12.50926 | 2744 ft | 62 kts | 242° |
| 2026-04-23 16:53 | 50.98719 | 12.50336 | 3110 ft | 70 kts | 248° |
| 2026-04-23 16:54 | 50.98438 | 12.49478 | 3396 ft | 99 kts | 252° |
| 2026-04-23 16:54 | 50.98142 | 12.48448 | 3719 ft | 103 kts | 255° |
| 2026-04-23 16:54 | 50.97982 | 12.47385 | 4029 ft | 96 kts | 287° |
| 2026-04-23 16:54 | 50.98152 | 12.46353 | 4329 ft | 100 kts | 278° |
| 2026-04-23 16:55 | 50.98168 | 12.45219 | 4481 ft | 106 kts | 281° |
| 2026-04-23 16:55 | 50.98198 | 12.43966 | 4475 ft | 118 kts | 276° |
| 2026-04-23 16:55 | 50.98188 | 12.42662 | 4481 ft | 118 kts | 275° |
| 2026-04-23 16:55 | 50.98224 | 12.41336 | 4471 ft | 123 kts | 278° |
| 2026-04-23 16:56 | 50.98256 | 12.40021 | 4467 ft | 117 kts | 275° |
| 2026-04-23 16:56 | 50.98250 | 12.38766 | 4461 ft | 114 kts | 275° |
| 2026-04-23 16:56 | 50.98250 | 12.37484 | 4481 ft | 116 kts | 277° |
| 2026-04-23 16:56 | 50.98257 | 12.36164 | 4459 ft | 121 kts | 275° |
| 2026-04-23 16:57 | 50.98256 | 12.34846 | 4484 ft | 121 kts | 274° |
| 2026-04-23 16:57 | 50.98260 | 12.33522 | 4488 ft | 117 kts | 276° |
| 2026-04-23 16:57 | 50.98256 | 12.32211 | 4481 ft | 118 kts | 275° |
| 2026-04-23 16:57 | 50.98265 | 12.30892 | 4485 ft | 121 kts | 274° |
| 2026-04-23 16:58 | 50.98264 | 12.29569 | 4473 ft | 117 kts | 277° |
| 2026-04-23 16:58 | 50.98275 | 12.28296 | 4469 ft | 114 kts | 277° |
| 2026-04-23 16:58 | 50.98293 | 12.27014 | 4486 ft | 120 kts | 277° |
| 2026-04-23 16:58 | 50.98301 | 12.25686 | 4487 ft | 123 kts | 275° |
| 2026-04-23 16:59 | 50.98300 | 12.24317 | 4463 ft | 124 kts | 274° |
| 2026-04-23 16:59 | 50.98298 | 12.23005 | 4468 ft | 115 kts | 273° |
| 2026-04-23 16:59 | 50.98293 | 12.21742 | 4492 ft | 116 kts | 278° |
| 2026-04-23 16:59 | 50.98314 | 12.20443 | 4477 ft | 117 kts | 275° |
| 2026-04-23 17:00 | 50.98313 | 12.19142 | 4482 ft | 118 kts | 276° |
| 2026-04-23 17:00 | 50.98315 | 12.17859 | 4485 ft | 114 kts | 274° |
| 2026-04-23 17:00 | 50.98317 | 12.16548 | 4486 ft | 121 kts | 275° |
| 2026-04-23 17:00 | 50.98324 | 12.15224 | 4478 ft | 120 kts | 275° |
| 2026-04-23 17:01 | 50.98323 | 12.13913 | 4492 ft | 122 kts | 274° |
| 2026-04-23 17:01 | 50.98323 | 12.12573 | 4499 ft | 122 kts | 273° |
| 2026-04-23 17:01 | 50.98319 | 12.11204 | 4459 ft | 122 kts | 275° |
| 2026-04-23 17:01 | 50.98327 | 12.09905 | 4505 ft | 118 kts | 275° |
| 2026-04-23 17:02 | 50.98333 | 12.09036 | 4482 ft | 118 kts | 275° |
| 2026-04-23 17:02 | 50.98337 | 12.07309 | 4497 ft | 116 kts | 274° |
| 2026-04-23 17:02 | 50.98341 | 12.06007 | 4490 ft | 117 kts | 275° |
| 2026-04-23 17:02 | 50.98341 | 12.04735 | 4507 ft | 116 kts | 275° |
| 2026-04-23 17:03 | 50.98338 | 12.03425 | 4487 ft | 118 kts | 275° |
| 2026-04-23 17:03 | 50.98339 | 12.02135 | 4489 ft | 115 kts | 275° |
| 2026-04-23 17:03 | 50.98343 | 12.00845 | 4510 ft | 123 kts | 276° |
| 2026-04-23 17:03 | 50.98345 | 11.99511 | 4508 ft | 118 kts | 274° |
| 2026-04-23 17:04 | 50.98345 | 11.98191 | 4488 ft | 118 kts | 275° |
| 2026-04-23 17:04 | 50.98345 | 11.96892 | 4507 ft | 122 kts | 275° |
| 2026-04-23 17:04 | 50.98345 | 11.95539 | 4507 ft | 125 kts | 275° |
| 2026-04-23 17:04 | 50.98344 | 11.94172 | 4499 ft | 123 kts | 275° |
| 2026-04-23 17:05 | 50.98346 | 11.92826 | 4508 ft | 124 kts | 274° |
| 2026-04-23 17:05 | 50.98346 | 11.91488 | 4496 ft | 117 kts | 275° |
| 2026-04-23 17:05 | 50.98347 | 11.90215 | 4493 ft | 114 kts | 275° |
| 2026-04-23 17:05 | 50.98350 | 11.88967 | 4498 ft | 114 kts | 275° |
| 2026-04-23 17:06 | 50.98356 | 11.87659 | 4487 ft | 120 kts | 275° |
| 2026-04-23 17:06 | 50.98347 | 11.86373 | 4494 ft | 115 kts | 275° |
| 2026-04-23 17:06 | 50.98348 | 11.85119 | 4495 ft | 113 kts | 275° |
| 2026-04-23 17:06 | 50.98349 | 11.83867 | 4495 ft | 113 kts | 276° |
| 2026-04-23 17:07 | 50.98349 | 11.82605 | 4500 ft | 117 kts | 274° |
| 2026-04-23 17:07 | 50.98342 | 11.81750 | 4506 ft | 117 kts | 275° |
| 2026-04-23 17:07 | 50.98340 | 11.80430 | 4508 ft | 121 kts | 276° |
| 2026-04-23 17:07 | 50.98343 | 11.79084 | 4487 ft | 124 kts | 274° |
| 2026-04-23 17:08 | 50.98342 | 11.77753 | 4497 ft | 117 kts | 275° |
| 2026-04-23 17:08 | 50.98339 | 11.76468 | 4509 ft | 118 kts | 275° |
| 2026-04-23 17:08 | 50.98342 | 11.75161 | 4493 ft | 117 kts | 275° |
| 2026-04-23 17:08 | 50.98343 | 11.73877 | 4498 ft | 115 kts | 275° |
| 2026-04-23 17:09 | 50.98340 | 11.72605 | 4498 ft | 115 kts | 274° |
| 2026-04-23 17:09 | 50.98337 | 11.71323 | 4496 ft | 117 kts | 275° |
| 2026-04-23 17:09 | 50.98334 | 11.70037 | 4495 ft | 116 kts | 275° |
| 2026-04-23 17:09 | 50.98332 | 11.68769 | 4496 ft | 114 kts | 274° |
| 2026-04-23 17:10 | 50.98332 | 11.67510 | 4499 ft | 114 kts | 274° |
| 2026-04-23 17:10 | 50.98326 | 11.66222 | 4504 ft | 118 kts | 275° |
| 2026-04-23 17:10 | 50.98336 | 11.64895 | 4494 ft | 121 kts | 274° |
| 2026-04-23 17:10 | 50.98325 | 11.63578 | 4497 ft | 117 kts | 274° |
| 2026-04-23 17:11 | 50.98315 | 11.62309 | 4498 ft | 116 kts | 275° |
| 2026-04-23 17:11 | 50.98313 | 11.61028 | 4510 ft | 118 kts | 275° |
| 2026-04-23 17:11 | 50.98331 | 11.59737 | 4498 ft | 116 kts | 274° |
| 2026-04-23 17:11 | 50.98308 | 11.58445 | 4500 ft | 119 kts | 274° |
| 2026-04-23 17:12 | 50.98307 | 11.57139 | 4507 ft | 119 kts | 276° |
| 2026-04-23 17:12 | 50.98301 | 11.55806 | 4511 ft | 121 kts | 274° |
| 2026-04-23 17:12 | 50.98294 | 11.54479 | 4519 ft | 122 kts | 275° |
| 2026-04-23 17:12 | 50.98292 | 11.53154 | 4498 ft | 117 kts | 274° |
| 2026-04-23 17:13 | 50.98282 | 11.51851 | 4495 ft | 116 kts | 274° |
| 2026-04-23 17:13 | 50.98280 | 11.50581 | 4516 ft | 116 kts | 275° |
| 2026-04-23 17:13 | 50.98282 | 11.49286 | 4500 ft | 116 kts | 275° |
| 2026-04-23 17:13 | 50.98295 | 11.47992 | 4501 ft | 119 kts | 276° |
| 2026-04-23 17:14 | 50.98281 | 11.46712 | 4509 ft | 116 kts | 272° |
| 2026-04-23 17:14 | 50.98267 | 11.45433 | 4504 ft | 115 kts | 275° |
| 2026-04-23 17:14 | 50.98258 | 11.44158 | 4514 ft | 117 kts | 275° |
| 2026-04-23 17:14 | 50.98251 | 11.42875 | 4501 ft | 112 kts | 275° |
| 2026-04-23 17:15 | 50.98251 | 11.41648 | 4512 ft | 111 kts | 275° |
| 2026-04-23 17:15 | 50.98251 | 11.40368 | 4514 ft | 119 kts | 274° |
| 2026-04-23 17:15 | 50.98247 | 11.39070 | 4504 ft | 115 kts | 274° |
| 2026-04-23 17:15 | 50.98240 | 11.37812 | 4499 ft | 113 kts | 275° |
| 2026-04-23 17:16 | 50.98235 | 11.36547 | 4496 ft | 117 kts | 274° |
| 2026-04-23 17:16 | 50.98228 | 11.35255 | 4498 ft | 115 kts | 275° |
| 2026-04-23 17:16 | 50.98222 | 11.34009 | 4498 ft | 113 kts | 275° |
| 2026-04-23 17:16 | 50.98215 | 11.32757 | 4506 ft | 116 kts | 276° |
| 2026-04-23 17:17 | 50.98210 | 11.31467 | 4499 ft | 115 kts | 274° |
| 2026-04-23 17:17 | 50.98206 | 11.30188 | 4508 ft | 117 kts | 272° |
| 2026-04-23 17:17 | 50.98198 | 11.28914 | 4495 ft | 114 kts | 274° |
| 2026-04-23 17:17 | 50.98189 | 11.27666 | 4495 ft | 112 kts | 275° |
| 2026-04-23 17:18 | 50.98184 | 11.25261 | 4512 ft | 119 kts | 274° |
| 2026-04-23 17:18 | 50.98180 | 11.23942 | 4509 ft | 122 kts | 274° |
| 2026-04-23 17:18 | 50.98167 | 11.22605 | 4506 ft | 119 kts | 275° |
| 2026-04-23 17:19 | 50.98154 | 11.21292 | 4509 ft | 120 kts | 274° |
| 2026-04-23 17:19 | 50.98150 | 11.19977 | 4507 ft | 118 kts | 276° |
| 2026-04-23 17:19 | 50.98147 | 11.18681 | 4499 ft | 117 kts | 274° |
| 2026-04-23 17:19 | 50.98134 | 11.17387 | 4498 ft | 116 kts | 275° |
| 2026-04-23 17:20 | 50.98125 | 11.16091 | 4506 ft | 119 kts | 275° |
| 2026-04-23 17:20 | 50.98103 | 11.13498 | 4502 ft | 116 kts | 275° |
| 2026-04-23 17:21 | 50.98079 | 11.10926 | 4491 ft | 115 kts | 275° |
| 2026-04-23 17:21 | 50.98083 | 11.09653 | 4489 ft | 115 kts | 275° |
| 2026-04-23 17:21 | 50.98062 | 11.07125 | 4505 ft | 115 kts | 275° |
| 2026-04-23 17:22 | 50.98053 | 11.05847 | 4498 ft | 115 kts | 276° |
| 2026-04-23 17:22 | 50.98040 | 11.03299 | 4499 ft | 116 kts | 274° |
| 2026-04-23 17:23 | 50.98025 | 11.00731 | 4499 ft | 116 kts | 275° |
| 2026-04-23 17:23 | 50.98012 | 10.99459 | 4493 ft | 114 kts | 275° |
| 2026-04-23 17:23 | 50.97990 | 10.97006 | 4491 ft | 111 kts | 275° |
| 2026-04-23 17:24 | 50.97993 | 10.95792 | 4495 ft | 109 kts | 284° |
| 2026-04-23 17:24 | 50.98239 | 10.94676 | 4499 ft | 107 kts | 295° |
| 2026-04-23 17:24 | 50.98751 | 10.92403 | 4506 ft | 116 kts | 296° |
| 2026-04-23 17:25 | 50.99268 | 10.90042 | 4507 ft | 115 kts | 293° |
| 2026-04-23 17:25 | 50.99543 | 10.88869 | 4492 ft | 110 kts | 295° |
| 2026-04-23 17:26 | 51.00044 | 10.86631 | 4507 ft | 108 kts | 295° |
| 2026-04-23 17:26 | 51.00542 | 10.84398 | 4491 ft | 105 kts | 295° |
| 2026-04-23 17:27 | 51.01052 | 10.82171 | 4493 ft | 115 kts | 293° |
| 2026-04-23 17:27 | 51.01317 | 10.80961 | 4507 ft | 117 kts | 294° |
| 2026-04-23 17:27 | 51.01585 | 10.79735 | 4504 ft | 118 kts | 294° |
| 2026-04-23 17:27 | 51.01861 | 10.78520 | 4489 ft | 114 kts | 295° |
| 2026-04-23 17:28 | 51.02110 | 10.77370 | 4496 ft | 107 kts | 294° |
| 2026-04-23 17:28 | 51.02368 | 10.76231 | 4511 ft | 112 kts | 294° |
| 2026-04-23 17:28 | 51.02624 | 10.75072 | 4509 ft | 109 kts | 294° |
| 2026-04-23 17:28 | 51.02884 | 10.73923 | 4509 ft | 111 kts | 294° |
| 2026-04-23 17:29 | 51.03138 | 10.72755 | 4513 ft | 114 kts | 293° |
| 2026-04-23 17:29 | 51.03401 | 10.71588 | 4501 ft | 109 kts | 295° |
| 2026-04-23 17:29 | 51.03902 | 10.69329 | 4505 ft | 111 kts | 293° |
| 2026-04-23 17:30 | 51.04154 | 10.68166 | 4508 ft | 112 kts | 292° |
| 2026-04-23 17:30 | 51.04675 | 10.65853 | 4503 ft | 112 kts | 294° |
| 2026-04-23 17:30 | 51.04933 | 10.64696 | 4508 ft | 111 kts | 295° |
| 2026-04-23 17:31 | 51.05191 | 10.63525 | 4516 ft | 114 kts | 295° |
| 2026-04-23 17:31 | 51.05453 | 10.62347 | 4516 ft | 114 kts | 295° |
| 2026-04-23 17:31 | 51.05711 | 10.61176 | 4514 ft | 112 kts | 294° |
| 2026-04-23 17:31 | 51.05963 | 10.60001 | 4502 ft | 110 kts | 294° |
| 2026-04-23 17:32 | 51.06222 | 10.58857 | 4521 ft | 112 kts | 294° |
| 2026-04-23 17:32 | 51.06484 | 10.57692 | 4525 ft | 110 kts | 293° |
| 2026-04-23 17:32 | 51.06734 | 10.56541 | 4507 ft | 108 kts | 294° |
| 2026-04-23 17:32 | 51.06977 | 10.55423 | 4508 ft | 107 kts | 295° |
| 2026-04-23 17:33 | 51.07221 | 10.54314 | 4528 ft | 106 kts | 298° |
| 2026-04-23 17:33 | 51.07479 | 10.53194 | 4513 ft | 110 kts | 295° |
| 2026-04-23 17:33 | 51.07721 | 10.52060 | 4511 ft | 107 kts | 294° |
| 2026-04-23 17:33 | 51.07964 | 10.50948 | 4511 ft | 105 kts | 295° |
| 2026-04-23 17:34 | 51.08203 | 10.49862 | 4511 ft | 106 kts | 294° |
| 2026-04-23 17:34 | 51.08450 | 10.48743 | 4514 ft | 106 kts | 294° |
| 2026-04-23 17:34 | 51.08935 | 10.46541 | 4513 ft | 106 kts | 295° |
| 2026-04-23 17:35 | 51.09179 | 10.45431 | 4514 ft | 106 kts | 295° |
| 2026-04-23 17:35 | 51.09664 | 10.43225 | 4517 ft | 106 kts | 294° |
| 2026-04-23 17:35 | 51.09907 | 10.42112 | 4519 ft | 106 kts | 295° |
| 2026-04-23 17:36 | 51.10151 | 10.41007 | 4519 ft | 106 kts | 295° |
| 2026-04-23 17:36 | 51.10395 | 10.39896 | 4517 ft | 106 kts | 295° |
| 2026-04-23 17:36 | 51.10636 | 10.38788 | 4523 ft | 105 kts | 295° |
| 2026-04-23 17:36 | 51.10875 | 10.37697 | 4518 ft | 104 kts | 295° |
| 2026-04-23 17:37 | 51.11112 | 10.36612 | 4517 ft | 104 kts | 295° |
| 2026-04-23 17:37 | 51.11350 | 10.35522 | 4518 ft | 105 kts | 295° |
| 2026-04-23 17:37 | 51.11828 | 10.33337 | 4532 ft | 106 kts | 294° |
| 2026-04-23 17:38 | 51.12055 | 10.32218 | 4518 ft | 105 kts | 294° |
| 2026-04-23 17:38 | 51.12320 | 10.31106 | 4526 ft | 112 kts | 298° |
| 2026-04-23 17:38 | 51.12581 | 10.29952 | 4513 ft | 107 kts | 295° |
| 2026-04-23 17:38 | 51.12809 | 10.28848 | 4514 ft | 103 kts | 296° |
| 2026-04-23 17:39 | 51.13039 | 10.27776 | 4518 ft | 105 kts | 295° |
| 2026-04-23 17:39 | 51.13289 | 10.26638 | 4510 ft | 110 kts | 295° |
| 2026-04-23 17:39 | 51.13533 | 10.25509 | 4523 ft | 106 kts | 295° |
| 2026-04-23 17:39 | 51.13769 | 10.24409 | 4526 ft | 103 kts | 295° |
| 2026-04-23 17:40 | 51.14010 | 10.23344 | 4523 ft | 101 kts | 296° |
| 2026-04-23 17:40 | 51.14236 | 10.22294 | 4521 ft | 100 kts | 295° |
| 2026-04-23 17:40 | 51.14485 | 10.21253 | 4532 ft | 101 kts | 303° |
| 2026-04-23 17:40 | 51.14842 | 10.20256 | 4519 ft | 102 kts | 304° |
| 2026-04-23 17:41 | 51.15176 | 10.19267 | 4522 ft | 100 kts | 304° |
| 2026-04-23 17:41 | 51.15863 | 10.17302 | 4507 ft | 108 kts | 303° |
| 2026-04-23 17:41 | 51.16207 | 10.16254 | 4520 ft | 108 kts | 303° |
| 2026-04-23 17:42 | 51.16901 | 10.14186 | 4480 ft | 105 kts | 303° |
| 2026-04-23 17:42 | 51.17245 | 10.13175 | 4480 ft | 103 kts | 304° |
| 2026-04-23 17:42 | 51.17591 | 10.12171 | 4490 ft | 104 kts | 304° |
| 2026-04-23 17:43 | 51.17941 | 10.11117 | 4470 ft | 107 kts | 304° |
| 2026-04-23 17:43 | 51.18303 | 10.10092 | 4478 ft | 106 kts | 303° |
| 2026-04-23 17:43 | 51.18653 | 10.09086 | 4474 ft | 102 kts | 305° |
| 2026-04-23 17:43 | 51.18986 | 10.08089 | 4473 ft | 102 kts | 303° |
| 2026-04-23 17:44 | 51.19321 | 10.07095 | 4474 ft | 102 kts | 304° |
| 2026-04-23 17:44 | 51.19654 | 10.06119 | 4486 ft | 102 kts | 303° |
| 2026-04-23 17:44 | 51.20339 | 10.04096 | 4478 ft | 104 kts | 304° |
| 2026-04-23 17:45 | 51.20687 | 10.03082 | 4481 ft | 105 kts | 303° |
| 2026-04-23 17:45 | 51.21380 | 10.01044 | 4484 ft | 106 kts | 304° |
| 2026-04-23 17:45 | 51.21735 | 10.00000 | 4476 ft | 107 kts | 303° |
| 2026-04-23 17:46 | 51.22414 | 9.97971 | 4486 ft | 101 kts | 304° |
| 2026-04-23 17:46 | 51.22758 | 9.96958 | 4463 ft | 103 kts | 303° |
| 2026-04-23 17:46 | 51.23084 | 9.95991 | 4470 ft | 96 kts | 304° |
| 2026-04-23 17:47 | 51.23404 | 9.95042 | 4491 ft | 101 kts | 306° |
| 2026-04-23 17:47 | 51.23716 | 9.94007 | 4471 ft | 103 kts | 301° |
| 2026-04-23 17:47 | 51.24398 | 9.91932 | 4485 ft | 108 kts | 304° |
| 2026-04-23 17:48 | 51.24746 | 9.90877 | 4488 ft | 106 kts | 302° |
| 2026-04-23 17:48 | 51.25056 | 9.89809 | 4472 ft | 105 kts | 302° |
| 2026-04-23 17:48 | 51.25370 | 9.88772 | 4466 ft | 103 kts | 301° |
| 2026-04-23 17:48 | 51.25668 | 9.87741 | 4484 ft | 102 kts | 301° |
| 2026-04-23 17:49 | 51.25968 | 9.86696 | 4490 ft | 107 kts | 301° |
| 2026-04-23 17:49 | 51.26269 | 9.85639 | 4480 ft | 103 kts | 301° |
| 2026-04-23 17:49 | 51.26562 | 9.84604 | 4479 ft | 101 kts | 301° |
| 2026-04-23 17:49 | 51.26847 | 9.83592 | 4479 ft | 102 kts | 301° |
| 2026-04-23 17:50 | 51.27136 | 9.82560 | 4475 ft | 100 kts | 301° |
| 2026-04-23 17:50 | 51.27711 | 9.80550 | 4478 ft | 102 kts | 301° |
| 2026-04-23 17:50 | 51.27999 | 9.79549 | 4493 ft | 97 kts | 301° |
| 2026-04-23 17:51 | 51.28275 | 9.78565 | 4502 ft | 97 kts | 303° |
| 2026-04-23 17:51 | 51.28558 | 9.77546 | 4483 ft | 100 kts | 301° |
| 2026-04-23 17:51 | 51.29131 | 9.75451 | 4488 ft | 100 kts | 301° |
| 2026-04-23 17:52 | 51.29426 | 9.74454 | 4490 ft | 102 kts | 302° |
| 2026-04-23 17:52 | 51.30016 | 9.72453 | 4485 ft | 101 kts | 301° |
| 2026-04-23 17:52 | 51.30308 | 9.71455 | 4492 ft | 99 kts | 301° |
| 2026-04-23 17:53 | 51.30888 | 9.69435 | 4489 ft | 102 kts | 301° |
| 2026-04-23 17:53 | 51.31170 | 9.68358 | 4295 ft | 102 kts | 298° |
| 2026-04-23 17:53 | 51.31456 | 9.67361 | 4032 ft | 97 kts | 301° |
| 2026-04-23 17:54 | 51.31751 | 9.66400 | 3811 ft | 99 kts | 300° |
| 2026-04-23 17:54 | 51.32076 | 9.65410 | 3558 ft | 101 kts | 301° |
| 2026-04-23 17:54 | 51.32686 | 9.63366 | 3068 ft | 102 kts | 298° |
| 2026-04-23 17:55 | 51.33170 | 9.61303 | 2559 ft | 98 kts | 296° |
| 2026-04-23 17:55 | 51.33405 | 9.60296 | 2498 ft | 95 kts | 296° |
| 2026-04-23 17:55 | 51.33626 | 9.59349 | 2492 ft | 86 kts | 296° |
| 2026-04-23 17:56 | 51.33756 | 9.58754 | 2519 ft | 86 kts | 295° |
| 2026-04-23 17:56 | 51.34231 | 9.56659 | 2494 ft | 82 kts | 295° |
| 2026-04-23 17:56 | 51.34418 | 9.55818 | 2492 ft | 78 kts | 296° |
| 2026-04-23 17:57 | 51.34556 | 9.55298 | 2497 ft | 73 kts | 299° |
| 2026-04-23 17:57 | 51.34948 | 9.54315 | 2481 ft | 86 kts | 310° |
| 2026-04-23 17:57 | 51.35460 | 9.53078 | 2497 ft | 75 kts | 303° |
| 2026-04-23 17:58 | 51.35711 | 9.52379 | 2494 ft | 72 kts | 304° |
| 2026-04-23 17:58 | 51.35975 | 9.51682 | 2479 ft | 79 kts | 307° |
| 2026-04-23 17:58 | 51.36277 | 9.50949 | 2497 ft | 82 kts | 307° |
| 2026-04-23 17:58 | 51.36608 | 9.50151 | 2497 ft | 90 kts | 307° |
| 2026-04-23 17:59 | 51.36967 | 9.49264 | 2520 ft | 100 kts | 308° |
| 2026-04-23 17:59 | 51.37347 | 9.48332 | 2508 ft | 99 kts | 309° |
| 2026-04-23 17:59 | 51.37729 | 9.47407 | 2508 ft | 102 kts | 307° |
| 2026-04-23 17:59 | 51.38121 | 9.46463 | 2505 ft | 103 kts | 307° |
| 2026-04-23 18:00 | 51.38509 | 9.45520 | 2493 ft | 101 kts | 307° |
| 2026-04-23 18:00 | 51.38901 | 9.44593 | 2411 ft | 104 kts | 307° |
| 2026-04-23 18:00 | 51.39412 | 9.44086 | 2259 ft | 77 kts | 355° |
| 2026-04-23 18:00 | 51.39912 | 9.44288 | 2028 ft | 77 kts | 4° |
| 2026-04-23 18:01 | 51.40448 | 9.44392 | 1892 ft | 78 kts | 351° |
| 2026-04-23 18:01 | 51.40991 | 9.44348 | 1688 ft | 80 kts | 345° |
| 2026-04-23 18:01 | 51.41552 | 9.44189 | 1371 ft | 80 kts | 335° |
| 2026-04-23 18:01 | 51.41814 | 9.43561 | 1199 ft | 74 kts | 281° |
| 2026-04-23 18:02 | 51.41881 | 9.42683 | 1077 ft | 78 kts | 279° |
| 2026-04-23 18:02 | 51.41930 | 9.41939 | 1071 ft | 58 kts | 274° |
| 2026-04-23 18:02 | 51.41960 | 9.41336 | 943 ft | 50 kts | 278° |
| 2026-04-23 18:02 | 51.41995 | 9.40755 | 876 ft | 53 kts | 278° |
| 2026-04-23 18:03 | 51.42023 | 9.40183 | 836 ft | 47 kts | 277° |
| 2026-04-23 18:03 | 51.42047 | 9.39772 | 839 ft | 29 kts | 275° |
| 2026-04-23 18:03 | 51.42063 | 9.39494 | 843 ft | 23 kts | 272° |
| 2026-04-23 18:03 | 51.42080 | 9.39204 | 847 ft | 24 kts | 274° |
| 2026-04-23 18:04 | 51.42091 | 9.38962 | 846 ft | 15 kts | 274° |
| 2026-04-23 18:04 | 51.42023 | 9.38875 | 848 ft | 2 kts | 184° |
| 2026-04-23 18:04 | 51.42020 | 9.38875 | 848 ft | 5 kts | 186° |
| 2026-04-23 18:04 | 51.41950 | 9.38878 | 843 ft | 13 kts | 144° |
| 2026-04-23 18:05 | 51.41929 | 9.39047 | 847 ft | 19 kts | 97° |
| 2026-04-23 18:05 | 51.41916 | 9.39286 | 845 ft | 17 kts | 95° |
| 2026-04-23 18:05 | 51.41894 | 9.39352 | 844 ft | 11 kts | 158° |
| 2026-04-23 18:05 | 51.41804 | 9.39365 | 832 ft | 8 kts | 104° |
| 2026-04-23 18:06 | 51.41798 | 9.39481 | 839 ft | 13 kts | 99° |
| 2026-04-23 18:06 | 51.41750 | 9.39498 | 839 ft | 2 kts | 150° |
| 2026-04-23 18:06 | 51.41749 | 9.39505 | 834 ft | 2 kts | 79° |
| 2026-04-23 18:06 | 51.41750 | 9.39518 | 836 ft | 0 kts | 95° |